sensor_id;sensor_type;location;lat;lon;timestamp;P1;durP1;ratioP1;P2;durP2;ratioP2
52067;SDS011;60237;52.338;21.228;2024-03-06T00:02:20;93.65;;;32.30;;
52067;SDS011;60237;52.338;21.228;2024-03-06T00:04:47;115.22;;;33.47;;
52067;SDS011;60237;52.338;21.228;2024-03-06T00:07:14;109.32;;;31.60;;
52067;SDS011;60237;52.338;21.228;2024-03-06T00:09:40;100.43;;;31.75;;
52067;SDS011;60237;52.338;21.228;2024-03-06T00:12:07;127.57;;;31.63;;
52067;SDS011;60237;52.338;21.228;2024-03-06T00:14:33;87.55;;;32.03;;
52067;SDS011;60237;52.338;21.228;2024-03-06T00:17:02;82.35;;;29.48;;
52067;SDS011;60237;52.338;21.228;2024-03-06T00:19:34;112.88;;;31.25;;
52067;SDS011;60237;52.338;21.228;2024-03-06T00:22:00;93.03;;;26.80;;
52067;SDS011;60237;52.338;21.228;2024-03-06T00:24:30;79.10;;;26.35;;
52067;SDS011;60237;52.338;21.228;2024-03-06T00:26:56;122.50;;;29.08;;
52067;SDS011;60237;52.338;21.228;2024-03-06T00:29:23;70.97;;;24.42;;
52067;SDS011;60237;52.338;21.228;2024-03-06T00:31:49;79.00;;;24.13;;
52067;SDS011;60237;52.338;21.228;2024-03-06T00:34:16;105.93;;;24.50;;
52067;SDS011;60237;52.338;21.228;2024-03-06T00:36:43;80.45;;;24.13;;
52067;SDS011;60237;52.338;21.228;2024-03-06T00:39:10;101.28;;;24.02;;
52067;SDS011;60237;52.338;21.228;2024-03-06T00:41:37;104.60;;;23.40;;
52067;SDS011;60237;52.338;21.228;2024-03-06T00:44:03;85.25;;;21.52;;
52067;SDS011;60237;52.338;21.228;2024-03-06T00:46:30;57.70;;;21.75;;
52067;SDS011;60237;52.338;21.228;2024-03-06T00:48:57;78.70;;;21.45;;
52067;SDS011;60237;52.338;21.228;2024-03-06T00:51:23;89.65;;;21.75;;
52067;SDS011;60237;52.338;21.228;2024-03-06T00:54:06;89.28;;;22.65;;
52067;SDS011;60237;52.338;21.228;2024-03-06T00:56:36;75.80;;;21.48;;
52067;SDS011;60237;52.338;21.228;2024-03-06T00:59:03;57.50;;;20.27;;
52067;SDS011;60237;52.338;21.228;2024-03-06T01:01:29;87.30;;;21.15;;
52067;SDS011;60237;52.338;21.228;2024-03-06T01:03:56;61.70;;;19.95;;
52067;SDS011;60237;52.338;21.228;2024-03-06T01:06:23;76.22;;;18.17;;
52067;SDS011;60237;52.338;21.228;2024-03-06T01:08:49;69.82;;;17.65;;
52067;SDS011;60237;52.338;21.228;2024-03-06T01:11:16;99.47;;;21.63;;
52067;SDS011;60237;52.338;21.228;2024-03-06T01:13:42;115.43;;;24.50;;
52067;SDS011;60237;52.338;21.228;2024-03-06T01:16:09;94.60;;;20.25;;
52067;SDS011;60237;52.338;21.228;2024-03-06T01:18:36;68.45;;;18.60;;
52067;SDS011;60237;52.338;21.228;2024-03-06T01:21:02;59.55;;;19.88;;
52067;SDS011;60237;52.338;21.228;2024-03-06T01:23:30;82.40;;;20.52;;
52067;SDS011;60237;52.338;21.228;2024-03-06T01:25:56;78.00;;;20.45;;
52067;SDS011;60237;52.338;21.228;2024-03-06T01:28:23;52.35;;;21.25;;
52067;SDS011;60237;52.338;21.228;2024-03-06T01:30:49;81.47;;;20.88;;
52067;SDS011;60237;52.338;21.228;2024-03-06T01:33:16;115.10;;;23.02;;
52067;SDS011;60237;52.338;21.228;2024-03-06T01:35:43;82.50;;;22.52;;
52067;SDS011;60237;52.338;21.228;2024-03-06T01:38:09;104.60;;;21.88;;
52067;SDS011;60237;52.338;21.228;2024-03-06T01:40:37;86.32;;;21.50;;
52067;SDS011;60237;52.338;21.228;2024-03-06T01:43:03;77.57;;;21.75;;
52067;SDS011;60237;52.338;21.228;2024-03-06T01:45:30;73.53;;;21.15;;
52067;SDS011;60237;52.338;21.228;2024-03-06T01:47:57;91.57;;;21.77;;
52067;SDS011;60237;52.338;21.228;2024-03-06T01:50:24;63.08;;;19.90;;
52067;SDS011;60237;52.338;21.228;2024-03-06T01:52:50;85.82;;;22.23;;
52067;SDS011;60237;52.338;21.228;2024-03-06T01:55:17;108.75;;;23.05;;
52067;SDS011;60237;52.338;21.228;2024-03-06T01:57:48;88.00;;;22.80;;
52067;SDS011;60237;52.338;21.228;2024-03-06T02:00:14;84.25;;;22.90;;
52067;SDS011;60237;52.338;21.228;2024-03-06T02:02:43;92.72;;;23.33;;
52067;SDS011;60237;52.338;21.228;2024-03-06T02:05:09;67.35;;;19.85;;
52067;SDS011;60237;52.338;21.228;2024-03-06T02:07:38;86.20;;;19.95;;
52067;SDS011;60237;52.338;21.228;2024-03-06T02:10:06;88.93;;;21.13;;
52067;SDS011;60237;52.338;21.228;2024-03-06T02:12:33;72.32;;;19.42;;
52067;SDS011;60237;52.338;21.228;2024-03-06T02:15:00;78.75;;;21.65;;
52067;SDS011;60237;52.338;21.228;2024-03-06T02:17:29;76.78;;;21.50;;
52067;SDS011;60237;52.338;21.228;2024-03-06T02:19:56;72.25;;;19.70;;
52067;SDS011;60237;52.338;21.228;2024-03-06T02:22:24;79.82;;;20.67;;
52067;SDS011;60237;52.338;21.228;2024-03-06T02:24:51;70.43;;;20.98;;
52067;SDS011;60237;52.338;21.228;2024-03-06T02:27:17;94.97;;;21.10;;
52067;SDS011;60237;52.338;21.228;2024-03-06T02:29:44;94.13;;;20.17;;
52067;SDS011;60237;52.338;21.228;2024-03-06T02:32:14;91.32;;;20.23;;
52067;SDS011;60237;52.338;21.228;2024-03-06T02:34:41;75.60;;;20.60;;
52067;SDS011;60237;52.338;21.228;2024-03-06T02:37:08;100.82;;;20.42;;
52067;SDS011;60237;52.338;21.228;2024-03-06T02:39:34;89.55;;;19.77;;
52067;SDS011;60237;52.338;21.228;2024-03-06T02:42:01;63.75;;;19.95;;
52067;SDS011;60237;52.338;21.228;2024-03-06T02:44:27;79.20;;;19.95;;
52067;SDS011;60237;52.338;21.228;2024-03-06T02:46:54;73.90;;;20.17;;
52067;SDS011;60237;52.338;21.228;2024-03-06T02:49:21;73.80;;;19.77;;
52067;SDS011;60237;52.338;21.228;2024-03-06T02:51:48;74.20;;;19.42;;
52067;SDS011;60237;52.338;21.228;2024-03-06T02:54:14;77.32;;;20.05;;
52067;SDS011;60237;52.338;21.228;2024-03-06T02:56:41;54.05;;;17.58;;
52067;SDS011;60237;52.338;21.228;2024-03-06T02:59:07;82.45;;;19.88;;
52067;SDS011;60237;52.338;21.228;2024-03-06T03:01:34;90.20;;;19.02;;
52067;SDS011;60237;52.338;21.228;2024-03-06T03:04:01;62.22;;;19.77;;
52067;SDS011;60237;52.338;21.228;2024-03-06T03:06:28;71.15;;;19.60;;
52067;SDS011;60237;52.338;21.228;2024-03-06T03:08:55;95.05;;;19.33;;
52067;SDS011;60237;52.338;21.228;2024-03-06T03:11:22;93.47;;;20.15;;
52067;SDS011;60237;52.338;21.228;2024-03-06T03:13:49;63.08;;;20.17;;
52067;SDS011;60237;52.338;21.228;2024-03-06T03:16:16;92.43;;;21.13;;
52067;SDS011;60237;52.338;21.228;2024-03-06T03:18:44;79.93;;;19.73;;
52067;SDS011;60237;52.338;21.228;2024-03-06T03:21:11;112.65;;;20.98;;
52067;SDS011;60237;52.338;21.228;2024-03-06T03:23:39;88.38;;;19.55;;
52067;SDS011;60237;52.338;21.228;2024-03-06T03:26:06;56.72;;;17.58;;
52067;SDS011;60237;52.338;21.228;2024-03-06T03:28:33;53.83;;;18.67;;
52067;SDS011;60237;52.338;21.228;2024-03-06T03:30:59;90.00;;;18.45;;
52067;SDS011;60237;52.338;21.228;2024-03-06T03:33:26;65.00;;;18.92;;
52067;SDS011;60237;52.338;21.228;2024-03-06T03:35:52;73.35;;;19.23;;
52067;SDS011;60237;52.338;21.228;2024-03-06T03:38:19;84.80;;;19.08;;
52067;SDS011;60237;52.338;21.228;2024-03-06T03:40:45;50.95;;;18.33;;
52067;SDS011;60237;52.338;21.228;2024-03-06T03:43:12;84.45;;;17.75;;
52067;SDS011;60237;52.338;21.228;2024-03-06T03:45:39;80.68;;;18.98;;
52067;SDS011;60237;52.338;21.228;2024-03-06T03:48:05;71.15;;;18.17;;
52067;SDS011;60237;52.338;21.228;2024-03-06T03:50:32;55.47;;;17.00;;
52067;SDS011;60237;52.338;21.228;2024-03-06T03:52:59;128.73;;;21.88;;
52067;SDS011;60237;52.338;21.228;2024-03-06T03:55:27;58.85;;;16.15;;
52067;SDS011;60237;52.338;21.228;2024-03-06T03:57:54;71.65;;;18.65;;
52067;SDS011;60237;52.338;21.228;2024-03-06T04:00:21;90.63;;;19.02;;
52067;SDS011;60237;52.338;21.228;2024-03-06T04:02:49;68.35;;;18.35;;
52067;SDS011;60237;52.338;21.228;2024-03-06T04:05:15;101.05;;;18.30;;
52067;SDS011;60237;52.338;21.228;2024-03-06T04:07:42;103.28;;;20.63;;
52067;SDS011;60237;52.338;21.228;2024-03-06T04:10:09;48.03;;;16.75;;
52067;SDS011;60237;52.338;21.228;2024-03-06T04:12:37;97.35;;;20.90;;
52067;SDS011;60237;52.338;21.228;2024-03-06T04:15:05;101.55;;;21.23;;
52067;SDS011;60237;52.338;21.228;2024-03-06T04:17:31;51.78;;;16.20;;
52067;SDS011;60237;52.338;21.228;2024-03-06T04:19:58;54.95;;;16.88;;
52067;SDS011;60237;52.338;21.228;2024-03-06T04:22:25;79.60;;;19.25;;
52067;SDS011;60237;52.338;21.228;2024-03-06T04:24:52;63.50;;;17.27;;
52067;SDS011;60237;52.338;21.228;2024-03-06T04:27:19;70.68;;;19.08;;
52067;SDS011;60237;52.338;21.228;2024-03-06T04:29:45;98.65;;;18.63;;
52067;SDS011;60237;52.338;21.228;2024-03-06T04:32:12;53.65;;;16.02;;
52067;SDS011;60237;52.338;21.228;2024-03-06T04:34:38;88.18;;;18.52;;
52067;SDS011;60237;52.338;21.228;2024-03-06T04:37:05;78.60;;;18.92;;
52067;SDS011;60237;52.338;21.228;2024-03-06T04:39:32;78.53;;;18.02;;
52067;SDS011;60237;52.338;21.228;2024-03-06T04:41:58;56.83;;;17.05;;
52067;SDS011;60237;52.338;21.228;2024-03-06T04:44:25;88.15;;;18.85;;
52067;SDS011;60237;52.338;21.228;2024-03-06T04:46:52;64.95;;;17.50;;
52067;SDS011;60237;52.338;21.228;2024-03-06T04:49:19;54.70;;;17.92;;
52067;SDS011;60237;52.338;21.228;2024-03-06T04:51:45;74.82;;;18.95;;
52067;SDS011;60237;52.338;21.228;2024-03-06T04:54:12;91.35;;;16.88;;
52067;SDS011;60237;52.338;21.228;2024-03-06T04:56:38;62.83;;;16.58;;
52067;SDS011;60237;52.338;21.228;2024-03-06T04:59:07;78.90;;;17.30;;
52067;SDS011;60237;52.338;21.228;2024-03-06T05:01:34;71.70;;;17.00;;
52067;SDS011;60237;52.338;21.228;2024-03-06T05:04:00;65.53;;;17.42;;
52067;SDS011;60237;52.338;21.228;2024-03-06T05:06:44;91.35;;;17.40;;
52067;SDS011;60237;52.338;21.228;2024-03-06T05:12:12;68.90;;;13.80;;
52067;SDS011;60237;52.338;21.228;2024-03-06T05:14:55;82.90;;;16.45;;
52067;SDS011;60237;52.338;21.228;2024-03-06T05:17:39;76.45;;;15.30;;
52067;SDS011;60237;52.338;21.228;2024-03-06T05:20:24;78.13;;;15.15;;
52067;SDS011;60237;52.338;21.228;2024-03-06T05:25:51;53.65;;;15.40;;
52067;SDS011;60237;52.338;21.228;2024-03-06T05:28:35;73.95;;;14.50;;
52067;SDS011;60237;52.338;21.228;2024-03-06T05:31:19;62.30;;;14.65;;
52067;SDS011;60237;52.338;21.228;2024-03-06T05:34:07;61.53;;;16.02;;
52067;SDS011;60237;52.338;21.228;2024-03-06T05:36:52;68.93;;;15.15;;
52067;SDS011;60237;52.338;21.228;2024-03-06T05:39:35;58.70;;;13.63;;
52067;SDS011;60237;52.338;21.228;2024-03-06T05:42:21;71.38;;;14.70;;
52067;SDS011;60237;52.338;21.228;2024-03-06T05:47:49;67.68;;;13.98;;
52067;SDS011;60237;52.338;21.228;2024-03-06T05:50:33;84.45;;;14.82;;
52067;SDS011;60237;52.338;21.228;2024-03-06T05:56:01;73.78;;;11.77;;
52067;SDS011;60237;52.338;21.228;2024-03-06T06:01:15;105.13;;;15.57;;
52067;SDS011;60237;52.338;21.228;2024-03-06T06:03:45;77.93;;;14.45;;
52067;SDS011;60237;52.338;21.228;2024-03-06T06:06:14;74.07;;;12.90;;
52067;SDS011;60237;52.338;21.228;2024-03-06T06:08:41;83.22;;;13.85;;
52067;SDS011;60237;52.338;21.228;2024-03-06T06:11:07;77.45;;;12.57;;
52067;SDS011;60237;52.338;21.228;2024-03-06T06:13:34;51.78;;;12.27;;
52067;SDS011;60237;52.338;21.228;2024-03-06T06:16:00;73.53;;;14.02;;
52067;SDS011;60237;52.338;21.228;2024-03-06T06:18:30;51.20;;;11.77;;
52067;SDS011;60237;52.338;21.228;2024-03-06T06:20:58;47.95;;;10.95;;
52067;SDS011;60237;52.338;21.228;2024-03-06T06:23:25;88.80;;;15.02;;
52067;SDS011;60237;52.338;21.228;2024-03-06T06:25:51;81.30;;;14.35;;
52067;SDS011;60237;52.338;21.228;2024-03-06T06:28:18;45.13;;;13.05;;
52067;SDS011;60237;52.338;21.228;2024-03-06T06:30:44;57.72;;;13.30;;
52067;SDS011;60237;52.338;21.228;2024-03-06T06:33:11;74.85;;;13.77;;
52067;SDS011;60237;52.338;21.228;2024-03-06T06:35:39;56.25;;;10.93;;
52067;SDS011;60237;52.338;21.228;2024-03-06T06:38:05;79.55;;;13.30;;
52067;SDS011;60237;52.338;21.228;2024-03-06T06:40:32;62.10;;;11.57;;
52067;SDS011;60237;52.338;21.228;2024-03-06T06:42:59;43.53;;;10.40;;
52067;SDS011;60237;52.338;21.228;2024-03-06T06:45:26;63.05;;;11.98;;
52067;SDS011;60237;52.338;21.228;2024-03-06T06:47:53;53.83;;;10.98;;
52067;SDS011;60237;52.338;21.228;2024-03-06T06:50:20;44.45;;;10.70;;
52067;SDS011;60237;52.338;21.228;2024-03-06T06:52:49;74.88;;;13.57;;
52067;SDS011;60237;52.338;21.228;2024-03-06T06:55:16;91.35;;;14.07;;
52067;SDS011;60237;52.338;21.228;2024-03-06T06:57:43;84.28;;;12.43;;
52067;SDS011;60237;52.338;21.228;2024-03-06T07:00:10;85.15;;;12.05;;
52067;SDS011;60237;52.338;21.228;2024-03-06T07:02:40;87.25;;;14.25;;
52067;SDS011;60237;52.338;21.228;2024-03-06T07:05:08;80.45;;;13.80;;
52067;SDS011;60237;52.338;21.228;2024-03-06T07:07:35;81.22;;;13.25;;
52067;SDS011;60237;52.338;21.228;2024-03-06T07:10:02;47.53;;;12.95;;
52067;SDS011;60237;52.338;21.228;2024-03-06T07:12:29;49.55;;;12.15;;
52067;SDS011;60237;52.338;21.228;2024-03-06T07:14:56;87.70;;;13.75;;
52067;SDS011;60237;52.338;21.228;2024-03-06T07:17:22;60.35;;;13.18;;
52067;SDS011;60237;52.338;21.228;2024-03-06T07:19:49;55.85;;;12.27;;
52067;SDS011;60237;52.338;21.228;2024-03-06T07:22:17;72.50;;;15.40;;
52067;SDS011;60237;52.338;21.228;2024-03-06T07:24:43;53.22;;;11.98;;
52067;SDS011;60237;52.338;21.228;2024-03-06T07:27:10;80.15;;;14.00;;
52067;SDS011;60237;52.338;21.228;2024-03-06T07:29:37;129.73;;;17.02;;
52067;SDS011;60237;52.338;21.228;2024-03-06T07:32:03;49.95;;;14.45;;
52067;SDS011;60237;52.338;21.228;2024-03-06T07:34:31;60.97;;;13.57;;
52067;SDS011;60237;52.338;21.228;2024-03-06T07:36:58;78.68;;;14.90;;
52067;SDS011;60237;52.338;21.228;2024-03-06T07:39:29;63.92;;;14.35;;
52067;SDS011;60237;52.338;21.228;2024-03-06T07:41:57;65.65;;;14.68;;
52067;SDS011;60237;52.338;21.228;2024-03-06T07:44:24;71.03;;;13.90;;
52067;SDS011;60237;52.338;21.228;2024-03-06T07:46:50;67.55;;;12.30;;
52067;SDS011;60237;52.338;21.228;2024-03-06T07:49:17;99.07;;;15.25;;
52067;SDS011;60237;52.338;21.228;2024-03-06T07:51:44;78.72;;;13.80;;
52067;SDS011;60237;52.338;21.228;2024-03-06T07:54:10;53.10;;;13.98;;
52067;SDS011;60237;52.338;21.228;2024-03-06T07:56:37;92.55;;;13.63;;
52067;SDS011;60237;52.338;21.228;2024-03-06T07:59:04;93.00;;;15.05;;
52067;SDS011;60237;52.338;21.228;2024-03-06T08:01:31;54.75;;;13.45;;
52067;SDS011;60237;52.338;21.228;2024-03-06T08:03:59;62.40;;;14.15;;
52067;SDS011;60237;52.338;21.228;2024-03-06T08:06:26;97.10;;;13.13;;
52067;SDS011;60237;52.338;21.228;2024-03-06T08:08:53;44.83;;;13.52;;
52067;SDS011;60237;52.338;21.228;2024-03-06T08:11:19;100.80;;;15.43;;
52067;SDS011;60237;52.338;21.228;2024-03-06T08:13:48;81.10;;;16.00;;
52067;SDS011;60237;52.338;21.228;2024-03-06T08:16:15;58.05;;;12.48;;
52067;SDS011;60237;52.338;21.228;2024-03-06T08:18:42;62.15;;;13.45;;
52067;SDS011;60237;52.338;21.228;2024-03-06T08:21:08;101.35;;;15.48;;
52067;SDS011;60237;52.338;21.228;2024-03-06T08:23:35;59.15;;;11.75;;
52067;SDS011;60237;52.338;21.228;2024-03-06T08:26:02;45.60;;;12.10;;
52067;SDS011;60237;52.338;21.228;2024-03-06T08:28:29;71.82;;;12.93;;
52067;SDS011;60237;52.338;21.228;2024-03-06T08:30:55;51.25;;;13.32;;
52067;SDS011;60237;52.338;21.228;2024-03-06T08:33:22;73.32;;;14.23;;
52067;SDS011;60237;52.338;21.228;2024-03-06T08:35:50;79.68;;;12.43;;
52067;SDS011;60237;52.338;21.228;2024-03-06T08:38:17;50.50;;;10.90;;
52067;SDS011;60237;52.338;21.228;2024-03-06T08:40:44;54.03;;;11.57;;
52067;SDS011;60237;52.338;21.228;2024-03-06T08:43:13;139.80;;;17.27;;
52067;SDS011;60237;52.338;21.228;2024-03-06T08:45:42;62.08;;;11.95;;
52067;SDS011;60237;52.338;21.228;2024-03-06T08:48:09;52.13;;;11.18;;
52067;SDS011;60237;52.338;21.228;2024-03-06T08:50:36;78.55;;;13.38;;
52067;SDS011;60237;52.338;21.228;2024-03-06T08:53:02;93.93;;;13.10;;
52067;SDS011;60237;52.338;21.228;2024-03-06T08:55:29;49.70;;;11.10;;
52067;SDS011;60237;52.338;21.228;2024-03-06T08:57:56;100.72;;;14.55;;
52067;SDS011;60237;52.338;21.228;2024-03-06T09:00:22;79.72;;;12.00;;
52067;SDS011;60237;52.338;21.228;2024-03-06T09:02:49;68.65;;;12.10;;
52067;SDS011;60237;52.338;21.228;2024-03-06T09:05:16;139.40;;;16.02;;
52067;SDS011;60237;52.338;21.228;2024-03-06T09:07:43;60.80;;;12.40;;
52067;SDS011;60237;52.338;21.228;2024-03-06T09:10:10;61.65;;;13.70;;
52067;SDS011;60237;52.338;21.228;2024-03-06T09:12:37;87.97;;;14.18;;
52067;SDS011;60237;52.338;21.228;2024-03-06T09:15:04;80.85;;;14.43;;
52067;SDS011;60237;52.338;21.228;2024-03-06T09:17:30;73.30;;;13.13;;
52067;SDS011;60237;52.338;21.228;2024-03-06T09:19:57;83.68;;;14.48;;
52067;SDS011;60237;52.338;21.228;2024-03-06T09:22:38;62.67;;;12.93;;
52067;SDS011;60237;52.338;21.228;2024-03-06T09:25:05;80.30;;;15.25;;
52067;SDS011;60237;52.338;21.228;2024-03-06T09:27:33;93.30;;;14.73;;
52067;SDS011;60237;52.338;21.228;2024-03-06T09:29:59;70.70;;;12.98;;
52067;SDS011;60237;52.338;21.228;2024-03-06T09:32:26;71.53;;;13.68;;
52067;SDS011;60237;52.338;21.228;2024-03-06T09:34:53;78.75;;;13.10;;
52067;SDS011;60237;52.338;21.228;2024-03-06T09:37:19;81.95;;;14.60;;
52067;SDS011;60237;52.338;21.228;2024-03-06T09:39:46;71.25;;;15.05;;
52067;SDS011;60237;52.338;21.228;2024-03-06T09:42:16;82.55;;;15.40;;
52067;SDS011;60237;52.338;21.228;2024-03-06T09:44:43;73.95;;;13.48;;
52067;SDS011;60237;52.338;21.228;2024-03-06T09:47:12;192.63;;;20.05;;
52067;SDS011;60237;52.338;21.228;2024-03-06T09:49:39;98.22;;;14.63;;
52067;SDS011;60237;52.338;21.228;2024-03-06T09:52:06;61.05;;;12.20;;
52067;SDS011;60237;52.338;21.228;2024-03-06T09:54:33;80.25;;;13.02;;
52067;SDS011;60237;52.338;21.228;2024-03-06T09:57:00;94.22;;;12.48;;
52067;SDS011;60237;52.338;21.228;2024-03-06T09:59:26;79.50;;;12.95;;
52067;SDS011;60237;52.338;21.228;2024-03-06T10:01:55;70.55;;;13.18;;
52067;SDS011;60237;52.338;21.228;2024-03-06T10:04:28;66.00;;;11.80;;
52067;SDS011;60237;52.338;21.228;2024-03-06T10:06:56;64.30;;;12.38;;
52067;SDS011;60237;52.338;21.228;2024-03-06T10:09:23;91.32;;;14.68;;
52067;SDS011;60237;52.338;21.228;2024-03-06T10:11:53;68.68;;;14.57;;
52067;SDS011;60237;52.338;21.228;2024-03-06T10:14:23;82.83;;;15.63;;
52067;SDS011;60237;52.338;21.228;2024-03-06T10:16:56;82.80;;;13.35;;
52067;SDS011;60237;52.338;21.228;2024-03-06T10:19:23;86.90;;;13.70;;
52067;SDS011;60237;52.338;21.228;2024-03-06T10:21:50;76.45;;;12.45;;
52067;SDS011;60237;52.338;21.228;2024-03-06T10:24:24;113.97;;;17.30;;
52067;SDS011;60237;52.338;21.228;2024-03-06T10:26:51;70.30;;;13.10;;
52067;SDS011;60237;52.338;21.228;2024-03-06T10:29:21;89.82;;;12.15;;
52067;SDS011;60237;52.338;21.228;2024-03-06T10:31:54;80.40;;;10.98;;
52067;SDS011;60237;52.338;21.228;2024-03-06T10:34:21;76.40;;;10.02;;
52067;SDS011;60237;52.338;21.228;2024-03-06T10:36:49;114.28;;;13.25;;
52067;SDS011;60237;52.338;21.228;2024-03-06T10:39:20;62.72;;;10.32;;
52067;SDS011;60237;52.338;21.228;2024-03-06T10:41:46;55.72;;;9.20;;
52067;SDS011;60237;52.338;21.228;2024-03-06T10:44:17;75.45;;;10.20;;
52067;SDS011;60237;52.338;21.228;2024-03-06T10:46:46;54.00;;;8.65;;
52067;SDS011;60237;52.338;21.228;2024-03-06T10:49:14;66.90;;;9.55;;
52067;SDS011;60237;52.338;21.228;2024-03-06T10:51:41;77.03;;;10.05;;
52067;SDS011;60237;52.338;21.228;2024-03-06T10:54:09;47.10;;;8.63;;
52067;SDS011;60237;52.338;21.228;2024-03-06T10:56:39;63.97;;;9.45;;
52067;SDS011;60237;52.338;21.228;2024-03-06T10:59:11;103.40;;;10.98;;
52067;SDS011;60237;52.338;21.228;2024-03-06T11:01:40;37.30;;;7.33;;
52067;SDS011;60237;52.338;21.228;2024-03-06T11:04:10;78.38;;;10.48;;
52067;SDS011;60237;52.338;21.228;2024-03-06T11:06:38;43.72;;;7.38;;
52067;SDS011;60237;52.338;21.228;2024-03-06T11:09:04;71.72;;;8.80;;
52067;SDS011;60237;52.338;21.228;2024-03-06T11:11:32;69.60;;;8.43;;
52067;SDS011;60237;52.338;21.228;2024-03-06T11:14:03;42.60;;;6.70;;
52067;SDS011;60237;52.338;21.228;2024-03-06T11:16:30;51.17;;;7.03;;
52067;SDS011;60237;52.338;21.228;2024-03-06T11:19:06;87.18;;;9.32;;
52067;SDS011;60237;52.338;21.228;2024-03-06T11:21:45;46.72;;;8.05;;
52067;SDS011;60237;52.338;21.228;2024-03-06T11:24:14;71.45;;;8.32;;
52067;SDS011;60237;52.338;21.228;2024-03-06T11:26:42;61.20;;;7.47;;
52067;SDS011;60237;52.338;21.228;2024-03-06T11:29:09;72.63;;;8.23;;
52067;SDS011;60237;52.338;21.228;2024-03-06T11:31:36;69.78;;;8.05;;
52067;SDS011;60237;52.338;21.228;2024-03-06T11:34:03;41.08;;;6.53;;
52067;SDS011;60237;52.338;21.228;2024-03-06T11:36:30;64.53;;;7.68;;
52067;SDS011;60237;52.338;21.228;2024-03-06T11:39:07;54.45;;;8.70;;
52067;SDS011;60237;52.338;21.228;2024-03-06T11:44:28;44.28;;;7.65;;
52067;SDS011;60237;52.338;21.228;2024-03-06T11:46:57;41.28;;;6.93;;
52067;SDS011;60237;52.338;21.228;2024-03-06T11:49:24;64.10;;;9.75;;
52067;SDS011;60237;52.338;21.228;2024-03-06T11:51:52;65.78;;;11.18;;
52067;SDS011;60237;52.338;21.228;2024-03-06T11:54:19;42.72;;;9.27;;
52067;SDS011;60237;52.338;21.228;2024-03-06T11:56:50;63.58;;;12.50;;
52067;SDS011;60237;52.338;21.228;2024-03-06T11:59:17;104.68;;;12.68;;
52067;SDS011;60237;52.338;21.228;2024-03-06T12:01:44;63.47;;;9.05;;
52067;SDS011;60237;52.338;21.228;2024-03-06T12:04:10;57.35;;;7.63;;
52067;SDS011;60237;52.338;21.228;2024-03-06T12:06:38;61.45;;;11.20;;
52067;SDS011;60237;52.338;21.228;2024-03-06T12:09:05;62.40;;;8.02;;
52067;SDS011;60237;52.338;21.228;2024-03-06T12:11:32;44.33;;;6.40;;
52067;SDS011;60237;52.338;21.228;2024-03-06T12:14:02;49.28;;;6.90;;
52067;SDS011;60237;52.338;21.228;2024-03-06T12:16:29;45.42;;;6.05;;
52067;SDS011;60237;52.338;21.228;2024-03-06T12:18:56;52.97;;;6.93;;
52067;SDS011;60237;52.338;21.228;2024-03-06T12:21:32;68.35;;;8.57;;
52067;SDS011;60237;52.338;21.228;2024-03-06T12:24:05;74.97;;;10.15;;
52067;SDS011;60237;52.338;21.228;2024-03-06T12:26:32;62.33;;;7.20;;
52067;SDS011;60237;52.338;21.228;2024-03-06T12:29:08;48.95;;;7.50;;
52067;SDS011;60237;52.338;21.228;2024-03-06T12:31:35;49.80;;;7.03;;
52067;SDS011;60237;52.338;21.228;2024-03-06T12:34:02;35.75;;;6.28;;
52067;SDS011;60237;52.338;21.228;2024-03-06T12:36:31;57.10;;;8.10;;
52067;SDS011;60237;52.338;21.228;2024-03-06T12:39:01;58.85;;;9.32;;
52067;SDS011;60237;52.338;21.228;2024-03-06T12:41:28;69.35;;;9.45;;
52067;SDS011;60237;52.338;21.228;2024-03-06T12:43:55;61.30;;;8.07;;
52067;SDS011;60237;52.338;21.228;2024-03-06T12:46:22;61.08;;;8.90;;
52067;SDS011;60237;52.338;21.228;2024-03-06T12:48:49;52.90;;;7.82;;
52067;SDS011;60237;52.338;21.228;2024-03-06T12:51:16;56.70;;;7.80;;
52067;SDS011;60237;52.338;21.228;2024-03-06T12:53:45;54.60;;;8.60;;
52067;SDS011;60237;52.338;21.228;2024-03-06T12:56:12;55.72;;;7.75;;
52067;SDS011;60237;52.338;21.228;2024-03-06T12:58:38;67.47;;;8.70;;
52067;SDS011;60237;52.338;21.228;2024-03-06T13:01:05;66.60;;;8.80;;
52067;SDS011;60237;52.338;21.228;2024-03-06T13:03:32;51.97;;;9.93;;
52067;SDS011;60237;52.338;21.228;2024-03-06T13:05:59;75.68;;;10.02;;
52067;SDS011;60237;52.338;21.228;2024-03-06T13:08:25;59.40;;;7.97;;
52067;SDS011;60237;52.338;21.228;2024-03-06T13:10:52;35.40;;;6.35;;
52067;SDS011;60237;52.338;21.228;2024-03-06T13:13:19;80.38;;;9.73;;
52067;SDS011;60237;52.338;21.228;2024-03-06T13:15:45;65.43;;;8.60;;
52067;SDS011;60237;52.338;21.228;2024-03-06T13:18:14;44.17;;;7.75;;
52067;SDS011;60237;52.338;21.228;2024-03-06T13:20:42;67.65;;;8.95;;
52067;SDS011;60237;52.338;21.228;2024-03-06T13:23:09;99.40;;;15.55;;
52067;SDS011;60237;52.338;21.228;2024-03-06T13:25:35;51.78;;;8.73;;
52067;SDS011;60237;52.338;21.228;2024-03-06T13:28:02;68.30;;;10.05;;
52067;SDS011;60237;52.338;21.228;2024-03-06T13:30:29;62.70;;;8.35;;
52067;SDS011;60237;52.338;21.228;2024-03-06T13:32:56;41.25;;;8.10;;
52067;SDS011;60237;52.338;21.228;2024-03-06T13:35:23;94.40;;;10.85;;
52067;SDS011;60237;52.338;21.228;2024-03-06T13:37:49;70.65;;;9.27;;
52067;SDS011;60237;52.338;21.228;2024-03-06T13:40:16;50.15;;;8.57;;
52067;SDS011;60237;52.338;21.228;2024-03-06T13:42:43;64.43;;;9.13;;
52067;SDS011;60237;52.338;21.228;2024-03-06T13:45:09;87.68;;;9.32;;
52067;SDS011;60237;52.338;21.228;2024-03-06T13:47:41;73.55;;;9.93;;
52067;SDS011;60237;52.338;21.228;2024-03-06T13:50:08;45.28;;;7.80;;
52067;SDS011;60237;52.338;21.228;2024-03-06T13:52:35;52.83;;;8.75;;
52067;SDS011;60237;52.338;21.228;2024-03-06T13:55:02;66.63;;;9.15;;
52067;SDS011;60237;52.338;21.228;2024-03-06T13:57:33;51.97;;;8.68;;
52067;SDS011;60237;52.338;21.228;2024-03-06T14:00:03;62.00;;;8.93;;
52067;SDS011;60237;52.338;21.228;2024-03-06T14:02:36;58.88;;;8.90;;
52067;SDS011;60237;52.338;21.228;2024-03-06T14:05:03;58.08;;;8.27;;
52067;SDS011;60237;52.338;21.228;2024-03-06T14:07:30;42.40;;;8.25;;
52067;SDS011;60237;52.338;21.228;2024-03-06T14:09:56;60.63;;;9.90;;
52067;SDS011;60237;52.338;21.228;2024-03-06T14:12:23;39.67;;;7.72;;
52067;SDS011;60237;52.338;21.228;2024-03-06T14:14:50;50.42;;;8.20;;
52067;SDS011;60237;52.338;21.228;2024-03-06T14:17:17;53.22;;;8.32;;
52067;SDS011;60237;52.338;21.228;2024-03-06T14:19:43;50.65;;;8.27;;
52067;SDS011;60237;52.338;21.228;2024-03-06T14:22:11;54.05;;;8.63;;
52067;SDS011;60237;52.338;21.228;2024-03-06T14:24:38;58.70;;;8.95;;
52067;SDS011;60237;52.338;21.228;2024-03-06T14:27:05;58.72;;;8.07;;
52067;SDS011;60237;52.338;21.228;2024-03-06T14:29:32;38.90;;;7.90;;
52067;SDS011;60237;52.338;21.228;2024-03-06T14:31:59;36.65;;;6.68;;
52067;SDS011;60237;52.338;21.228;2024-03-06T14:34:25;49.28;;;8.32;;